KTHA/THA METAR and TAF weather

Enter ICAO airport designator
Station Type Date Time Source
KTHA METAR 2021/10/20 05:55 UTC NOAA

KTHA 200555Z AUTO 00000KT 2 1/2SM BR CLR 08/08 A3022 RMK A01


Station Type Date Time Source
KTHA Decoded METAR 2021/10/20 05:55 UTC NOAA

Station name not available
Oct 20, 2021 - 01:55 AM EDT / 2021.10.20 0555 UTC
Wind: Calm:0
Visibility: 2 1/2 mile(s):0
Sky conditions: clear
Weather: mist
Temperature: 46 F (8 C)
Dew Point: 46 F (8 C)
Relative Humidity: 100%
Pressure (altimeter): 30.22 in. Hg (1023 hPa)
ob: KTHA 200555Z AUTO 00000KT 2 1/2SM BR CLR 08/08 A3022 RMK A01
cycle: 6

Station Type Date Time Source
KTHA TAF UTC NOAA

Error!

Example: see airport list